Terminal Aerodrome Forecast
Issued by NWS

Home | Current Version | Previous Version | Text Only | Print | Product List | Glossary Off
Versions: 1 2 3 4 5 6 7 8 9 10 11 12 13 14 15 16 17 18 19 20 21 22 23 24 25 26

000
FTUS43 KGRB 232330
TAFRHI
TAF
KRHI 232330Z 2400/2424 03005KT P6SM BKN020 BKN080
     FM240600 05005KT P6SM SCT015 OVC050
     FM241000 05010KT 5SM -SN BKN015 OVC040
     FM241400 04012G18KT 1 1/2SM -SN OVC012
     FM241900 02014G20KT 1SM -SN OVC010=

USA.gov is the U.S. government's official web portal to all federal, state and local government web resources and services.